Maribel — LAGU6 — position and weather

sailwx.info

Track history (hours):
 
Tides and Currents Weather Stations Pressure Air Temp Water Temp Dewpoint Dewpoint Depression Visibility Wind Speed Wind Dir Waves Ship Positions

Maribel

Last reported at 2017-Oct-18 17:56 UTC. Time now 2017-Nov-19 15:40 UTC.
Position N 29°48' E 032°31'.
Warning: this ship's position is 31 days out of date.

Length 229 m; draft 13 m.

Type: Ship. MMSI: 257872000.

Date/timePositionNaut miles runAvg speedWind from/ knotsBaromVisibWave heightAir tempDewpointWater temp
2017-Oct-18 17:56N 29°48' E 032°31'4 8.6
2017-Oct-18 17:26N 29°53' E 032°33'2 5.6
2017-Oct-18 17:00N 29°55' E 032°33'  
2017-Oct-16 04:59N 37°24' E 025°55'612.8
2017-Oct-16 04:30N 37°28' E 025°49'713.1
2017-Oct-16 03:59N 37°34' E 025°46'612.9
2017-Oct-16 03:31N 37°39' E 025°43'612.8
2017-Oct-16 03:00N 37°45' E 025°39'612.8
2017-Oct-16 02:30N 37°51' E 025°36'12312.5
2017-Oct-15 16:36N 39°54' E 025°49'214.7
2017-Oct-15 16:28N 39°55' E 025°51'814.5
2017-Oct-15 15:56N 40°00' E 025°58'714.1
2017-Oct-15 15:27N 40°01' E 026°07'  
Track history (hours):
 
Tides and Currents Weather Stations Pressure Air Temp Water Temp Dewpoint Dewpoint Depression Visibility Wind Speed Wind Dir Waves Ship Positions

Maribel

Last reported at 2017-Oct-18 17:56 UTC. Time now 2017-Nov-19 15:40 UTC.
Position N 29°48' E 032°31'.
Warning: this ship's position is 31 days out of date.

Length 229 m; draft 13 m.

Type: Ship. MMSI: 257872000.

Date/timePositionNaut miles runAvg speedWind from/ knotsBaromVisibWave heightAir tempDewpointWater temp
2017-Oct-18 17:56N 29°48' E 032°31'4 8.6
2017-Oct-18 17:26N 29°53' E 032°33'2 5.6
2017-Oct-18 17:00N 29°55' E 032°33'  
2017-Oct-16 04:59N 37°24' E 025°55'612.8
2017-Oct-16 04:30N 37°28' E 025°49'713.1
2017-Oct-16 03:59N 37°34' E 025°46'612.9
2017-Oct-16 03:31N 37°39' E 025°43'612.8
2017-Oct-16 03:00N 37°45' E 025°39'612.8
2017-Oct-16 02:30N 37°51' E 025°36'12312.5
2017-Oct-15 16:36N 39°54' E 025°49'214.7
2017-Oct-15 16:28N 39°55' E 025°51'814.5
2017-Oct-15 15:56N 40°00' E 025°58'714.1
2017-Oct-15 15:27N 40°01' E 026°07'  

Dump ship's entire track history